sensor_id;sensor_type;location;lat;lon;timestamp;temperature;humidity
76168;DHT22;64927;48.214;16.378;2023-01-19T00:00:13;6.50;56.10
76168;DHT22;64927;48.214;16.378;2023-01-19T00:02:42;6.50;56.00
76168;DHT22;64927;48.214;16.378;2023-01-19T00:05:12;6.50;55.70
76168;DHT22;64927;48.214;16.378;2023-01-19T00:07:39;6.50;56.00
76168;DHT22;64927;48.214;16.378;2023-01-19T00:10:05;6.50;55.90
76168;DHT22;64927;48.214;16.378;2023-01-19T00:12:33;6.50;55.50
76168;DHT22;64927;48.214;16.378;2023-01-19T00:14:59;6.40;55.70
76168;DHT22;64927;48.214;16.378;2023-01-19T00:17:25;6.30;55.80
76168;DHT22;64927;48.214;16.378;2023-01-19T00:19:50;6.30;55.70
76168;DHT22;64927;48.214;16.378;2023-01-19T00:22:16;6.30;55.70
76168;DHT22;64927;48.214;16.378;2023-01-19T00:24:42;6.30;56.10
76168;DHT22;64927;48.214;16.378;2023-01-19T00:27:08;6.30;56.20
76168;DHT22;64927;48.214;16.378;2023-01-19T00:29:34;6.30;56.00
76168;DHT22;64927;48.214;16.378;2023-01-19T00:32:01;6.30;56.30
76168;DHT22;64927;48.214;16.378;2023-01-19T00:34:29;6.20;56.30
76168;DHT22;64927;48.214;16.378;2023-01-19T00:37:10;6.30;56.50
76168;DHT22;64927;48.214;16.378;2023-01-19T00:39:35;6.30;56.50
76168;DHT22;64927;48.214;16.378;2023-01-19T00:42:03;6.30;56.60
76168;DHT22;64927;48.214;16.378;2023-01-19T00:44:48;6.30;56.40
76168;DHT22;64927;48.214;16.378;2023-01-19T00:47:13;6.30;56.60
76168;DHT22;64927;48.214;16.378;2023-01-19T00:49:41;6.30;56.70
76168;DHT22;64927;48.214;16.378;2023-01-19T00:52:07;6.30;57.00
76168;DHT22;64927;48.214;16.378;2023-01-19T00:54:32;6.20;57.10
76168;DHT22;64927;48.214;16.378;2023-01-19T00:56:58;6.20;57.30
76168;DHT22;64927;48.214;16.378;2023-01-19T00:59:23;6.20;57.30
76168;DHT22;64927;48.214;16.378;2023-01-19T01:01:50;6.10;57.50
76168;DHT22;64927;48.214;16.378;2023-01-19T01:04:15;6.10;58.90
76168;DHT22;64927;48.214;16.378;2023-01-19T01:06:41;6.10;57.90
76168;DHT22;64927;48.214;16.378;2023-01-19T01:09:07;6.20;57.90
76168;DHT22;64927;48.214;16.378;2023-01-19T01:11:40;6.10;58.20
76168;DHT22;64927;48.214;16.378;2023-01-19T01:14:07;6.00;58.20
76168;DHT22;64927;48.214;16.378;2023-01-19T01:16:33;5.80;58.90
76168;DHT22;64927;48.214;16.378;2023-01-19T01:18:59;5.90;58.80
76168;DHT22;64927;48.214;16.378;2023-01-19T01:21:27;5.90;58.40
76168;DHT22;64927;48.214;16.378;2023-01-19T01:23:52;6.00;58.10
76168;DHT22;64927;48.214;16.378;2023-01-19T01:26:20;5.90;58.40
76168;DHT22;64927;48.214;16.378;2023-01-19T01:28:51;5.90;58.40
76168;DHT22;64927;48.214;16.378;2023-01-19T01:31:17;5.90;58.20
76168;DHT22;64927;48.214;16.378;2023-01-19T01:33:45;5.90;58.30
76168;DHT22;64927;48.214;16.378;2023-01-19T01:36:10;5.90;58.20
76168;DHT22;64927;48.214;16.378;2023-01-19T01:38:38;5.90;58.30
76168;DHT22;64927;48.214;16.378;2023-01-19T01:41:03;5.90;57.80
76168;DHT22;64927;48.214;16.378;2023-01-19T01:43:49;5.90;57.30
76168;DHT22;64927;48.214;16.378;2023-01-19T01:46:16;5.90;57.40
76168;DHT22;64927;48.214;16.378;2023-01-19T01:48:47;5.80;57.40
76168;DHT22;64927;48.214;16.378;2023-01-19T01:51:27;5.80;57.70
76168;DHT22;64927;48.214;16.378;2023-01-19T01:54:54;5.90;57.20
76168;DHT22;64927;48.214;16.378;2023-01-19T01:56:56;5.90;56.60
76168;DHT22;64927;48.214;16.378;2023-01-19T01:59:28;5.90;56.70
76168;DHT22;64927;48.214;16.378;2023-01-19T02:02:01;6.00;56.30
76168;DHT22;64927;48.214;16.378;2023-01-19T02:04:53;6.00;56.40
76168;DHT22;64927;48.214;16.378;2023-01-19T02:07:37;6.00;56.40
76168;DHT22;64927;48.214;16.378;2023-01-19T02:10:24;6.00;56.00
76168;DHT22;64927;48.214;16.378;2023-01-19T02:13:10;5.90;55.60
76168;DHT22;64927;48.214;16.378;2023-01-19T02:15:51;5.90;56.10
76168;DHT22;64927;48.214;16.378;2023-01-19T02:18:19;5.80;56.20
76168;DHT22;64927;48.214;16.378;2023-01-19T02:21:13;5.90;56.10
76168;DHT22;64927;48.214;16.378;2023-01-19T02:26:20;6.00;55.70
76168;DHT22;64927;48.214;16.378;2023-01-19T02:28:51;6.00;55.90
76168;DHT22;64927;48.214;16.378;2023-01-19T02:31:18;6.00;55.40
76168;DHT22;64927;48.214;16.378;2023-01-19T02:33:44;5.90;55.30
76168;DHT22;64927;48.214;16.378;2023-01-19T02:36:12;5.90;55.10
76168;DHT22;64927;48.214;16.378;2023-01-19T02:38:41;5.90;55.60
76168;DHT22;64927;48.214;16.378;2023-01-19T02:41:09;5.90;55.30
76168;DHT22;64927;48.214;16.378;2023-01-19T02:43:42;6.00;55.40
76168;DHT22;64927;48.214;16.378;2023-01-19T02:46:08;6.00;55.10
76168;DHT22;64927;48.214;16.378;2023-01-19T02:48:33;6.10;55.30
76168;DHT22;64927;48.214;16.378;2023-01-19T02:51:01;6.10;54.80
76168;DHT22;64927;48.214;16.378;2023-01-19T03:04:20;6.10;53.90
76168;DHT22;64927;48.214;16.378;2023-01-19T03:06:52;6.10;54.00
76168;DHT22;64927;48.214;16.378;2023-01-19T03:09:27;6.10;53.30
76168;DHT22;64927;48.214;16.378;2023-01-19T03:12:09;6.10;53.00
76168;DHT22;64927;48.214;16.378;2023-01-19T03:14:42;6.00;52.90
76168;DHT22;64927;48.214;16.378;2023-01-19T03:17:11;6.10;53.40
76168;DHT22;64927;48.214;16.378;2023-01-19T03:19:40;6.00;53.00
76168;DHT22;64927;48.214;16.378;2023-01-19T03:22:15;5.90;53.10
76168;DHT22;64927;48.214;16.378;2023-01-19T03:24:45;6.00;53.30
76168;DHT22;64927;48.214;16.378;2023-01-19T03:27:19;5.90;53.40
76168;DHT22;64927;48.214;16.378;2023-01-19T03:29:55;5.90;53.20
76168;DHT22;64927;48.214;16.378;2023-01-19T03:32:27;5.90;53.50
76168;DHT22;64927;48.214;16.378;2023-01-19T03:34:58;5.90;53.40
76168;DHT22;64927;48.214;16.378;2023-01-19T03:37:26;5.90;53.30
76168;DHT22;64927;48.214;16.378;2023-01-19T03:39:54;5.90;53.40
76168;DHT22;64927;48.214;16.378;2023-01-19T03:42:21;5.90;54.00
76168;DHT22;64927;48.214;16.378;2023-01-19T03:44:50;5.90;54.00
76168;DHT22;64927;48.214;16.378;2023-01-19T03:47:20;5.90;54.00
76168;DHT22;64927;48.214;16.378;2023-01-19T03:49:47;5.80;54.10
76168;DHT22;64927;48.214;16.378;2023-01-19T03:52:17;5.80;54.40
76168;DHT22;64927;48.214;16.378;2023-01-19T03:54:46;5.90;54.00
76168;DHT22;64927;48.214;16.378;2023-01-19T03:57:12;6.00;54.40
76168;DHT22;64927;48.214;16.378;2023-01-19T03:59:38;6.00;53.90
76168;DHT22;64927;48.214;16.378;2023-01-19T04:02:03;5.90;54.00
76168;DHT22;64927;48.214;16.378;2023-01-19T04:04:31;5.90;54.30
76168;DHT22;64927;48.214;16.378;2023-01-19T04:06:57;6.10;53.90
76168;DHT22;64927;48.214;16.378;2023-01-19T04:09:24;6.10;53.70
76168;DHT22;64927;48.214;16.378;2023-01-19T04:11:52;6.00;53.60
76168;DHT22;64927;48.214;16.378;2023-01-19T04:14:21;5.90;53.90
76168;DHT22;64927;48.214;16.378;2023-01-19T04:16:47;5.90;54.00
76168;DHT22;64927;48.214;16.378;2023-01-19T04:19:15;5.90;54.30
76168;DHT22;64927;48.214;16.378;2023-01-19T04:21:41;5.90;54.30
76168;DHT22;64927;48.214;16.378;2023-01-19T04:24:08;5.90;54.70
76168;DHT22;64927;48.214;16.378;2023-01-19T04:26:34;5.80;54.70
76168;DHT22;64927;48.214;16.378;2023-01-19T04:29:00;5.80;55.10
76168;DHT22;64927;48.214;16.378;2023-01-19T04:31:26;5.80;54.90
76168;DHT22;64927;48.214;16.378;2023-01-19T04:33:51;5.80;55.20
76168;DHT22;64927;48.214;16.378;2023-01-19T04:36:17;5.70;55.60
76168;DHT22;64927;48.214;16.378;2023-01-19T04:38:43;5.80;55.40
76168;DHT22;64927;48.214;16.378;2023-01-19T04:41:10;5.80;55.50
76168;DHT22;64927;48.214;16.378;2023-01-19T04:43:36;5.80;55.50
76168;DHT22;64927;48.214;16.378;2023-01-19T04:46:02;5.80;55.80
76168;DHT22;64927;48.214;16.378;2023-01-19T04:48:30;5.80;55.90
76168;DHT22;64927;48.214;16.378;2023-01-19T04:50:58;5.80;56.10
76168;DHT22;64927;48.214;16.378;2023-01-19T04:53:24;5.60;56.50
76168;DHT22;64927;48.214;16.378;2023-01-19T04:55:53;5.70;56.70
76168;DHT22;64927;48.214;16.378;2023-01-19T04:58:21;5.60;56.90
76168;DHT22;64927;48.214;16.378;2023-01-19T05:00:47;5.60;57.10
76168;DHT22;64927;48.214;16.378;2023-01-19T05:03:13;5.60;56.90
76168;DHT22;64927;48.214;16.378;2023-01-19T05:05:39;5.60;57.50
76168;DHT22;64927;48.214;16.378;2023-01-19T05:08:05;5.60;57.50
76168;DHT22;64927;48.214;16.378;2023-01-19T05:10:30;5.50;57.80
76168;DHT22;64927;48.214;16.378;2023-01-19T05:12:58;5.50;57.80
76168;DHT22;64927;48.214;16.378;2023-01-19T05:15:29;5.60;57.70
76168;DHT22;64927;48.214;16.378;2023-01-19T05:17:54;5.50;57.80
76168;DHT22;64927;48.214;16.378;2023-01-19T05:20:23;5.60;57.80
76168;DHT22;64927;48.214;16.378;2023-01-19T05:22:50;5.50;58.00
76168;DHT22;64927;48.214;16.378;2023-01-19T05:25:18;5.50;58.00
76168;DHT22;64927;48.214;16.378;2023-01-19T05:27:44;5.50;57.90
76168;DHT22;64927;48.214;16.378;2023-01-19T05:30:10;5.60;58.10
76168;DHT22;64927;48.214;16.378;2023-01-19T05:32:39;5.60;58.00
76168;DHT22;64927;48.214;16.378;2023-01-19T05:35:05;5.60;58.00
76168;DHT22;64927;48.214;16.378;2023-01-19T05:37:31;5.60;58.20
76168;DHT22;64927;48.214;16.378;2023-01-19T05:39:57;5.60;58.10
76168;DHT22;64927;48.214;16.378;2023-01-19T05:42:23;5.60;58.00
76168;DHT22;64927;48.214;16.378;2023-01-19T05:44:48;5.60;58.30
76168;DHT22;64927;48.214;16.378;2023-01-19T05:47:14;5.60;58.50
76168;DHT22;64927;48.214;16.378;2023-01-19T05:49:42;5.50;58.50
76168;DHT22;64927;48.214;16.378;2023-01-19T05:52:07;5.60;58.70
76168;DHT22;64927;48.214;16.378;2023-01-19T05:54:33;5.60;58.50
76168;DHT22;64927;48.214;16.378;2023-01-19T05:57:04;5.60;58.60
76168;DHT22;64927;48.214;16.378;2023-01-19T05:59:29;5.60;58.60
76168;DHT22;64927;48.214;16.378;2023-01-19T06:01:55;5.70;58.40
76168;DHT22;64927;48.214;16.378;2023-01-19T06:04:21;5.70;58.40
76168;DHT22;64927;48.214;16.378;2023-01-19T06:06:52;5.60;58.60
76168;DHT22;64927;48.214;16.378;2023-01-19T06:09:20;5.70;58.70
76168;DHT22;64927;48.214;16.378;2023-01-19T06:11:48;5.70;58.30
76168;DHT22;64927;48.214;16.378;2023-01-19T06:14:14;5.70;58.20
76168;DHT22;64927;48.214;16.378;2023-01-19T06:16:40;5.70;58.20
76168;DHT22;64927;48.214;16.378;2023-01-19T06:19:05;5.80;57.90
76168;DHT22;64927;48.214;16.378;2023-01-19T06:21:32;5.80;57.90
76168;DHT22;64927;48.214;16.378;2023-01-19T06:24:02;5.80;57.80
76168;DHT22;64927;48.214;16.378;2023-01-19T06:26:28;5.80;58.10
76168;DHT22;64927;48.214;16.378;2023-01-19T06:28:54;5.70;58.50
76168;DHT22;64927;48.214;16.378;2023-01-19T06:31:19;5.70;58.40
76168;DHT22;64927;48.214;16.378;2023-01-19T06:33:47;5.60;58.30
76168;DHT22;64927;48.214;16.378;2023-01-19T06:36:14;5.60;58.60
76168;DHT22;64927;48.214;16.378;2023-01-19T06:38:42;5.70;58.70
76168;DHT22;64927;48.214;16.378;2023-01-19T06:41:08;5.70;58.30
76168;DHT22;64927;48.214;16.378;2023-01-19T06:43:36;5.70;58.50
76168;DHT22;64927;48.214;16.378;2023-01-19T06:46:02;5.70;58.30
76168;DHT22;64927;48.214;16.378;2023-01-19T06:48:28;5.70;58.50
76168;DHT22;64927;48.214;16.378;2023-01-19T06:50:54;5.70;58.30
76168;DHT22;64927;48.214;16.378;2023-01-19T06:53:22;5.70;58.30
76168;DHT22;64927;48.214;16.378;2023-01-19T06:55:48;5.50;58.60
76168;DHT22;64927;48.214;16.378;2023-01-19T06:58:13;5.60;58.70
76168;DHT22;64927;48.214;16.378;2023-01-19T07:00:39;5.50;59.00
76168;DHT22;64927;48.214;16.378;2023-01-19T07:03:10;5.50;59.20
76168;DHT22;64927;48.214;16.378;2023-01-19T07:05:41;5.60;58.80
76168;DHT22;64927;48.214;16.378;2023-01-19T07:08:06;5.60;58.60
76168;DHT22;64927;48.214;16.378;2023-01-19T07:10:32;5.70;58.30
76168;DHT22;64927;48.214;16.378;2023-01-19T07:12:58;5.70;58.40
76168;DHT22;64927;48.214;16.378;2023-01-19T07:15:23;5.70;58.20
76168;DHT22;64927;48.214;16.378;2023-01-19T07:17:49;5.60;58.40
76168;DHT22;64927;48.214;16.378;2023-01-19T07:20:15;5.60;58.00
76168;DHT22;64927;48.214;16.378;2023-01-19T07:22:46;5.60;57.90
76168;DHT22;64927;48.214;16.378;2023-01-19T07:25:12;5.70;57.60
76168;DHT22;64927;48.214;16.378;2023-01-19T07:27:38;5.60;58.20
76168;DHT22;64927;48.214;16.378;2023-01-19T07:30:05;5.60;57.80
76168;DHT22;64927;48.214;16.378;2023-01-19T07:32:31;5.70;57.90
76168;DHT22;64927;48.214;16.378;2023-01-19T07:34:56;5.60;58.00
76168;DHT22;64927;48.214;16.378;2023-01-19T07:37:24;5.70;57.60
76168;DHT22;64927;48.214;16.378;2023-01-19T07:39:52;5.80;57.70
76168;DHT22;64927;48.214;16.378;2023-01-19T07:42:18;5.70;57.60
76168;DHT22;64927;48.214;16.378;2023-01-19T07:44:44;5.80;57.80
76168;DHT22;64927;48.214;16.378;2023-01-19T07:47:11;5.70;57.80
76168;DHT22;64927;48.214;16.378;2023-01-19T07:49:38;5.70;58.10
76168;DHT22;64927;48.214;16.378;2023-01-19T07:52:04;5.90;57.70
76168;DHT22;64927;48.214;16.378;2023-01-19T07:54:29;5.70;57.80
76168;DHT22;64927;48.214;16.378;2023-01-19T07:56:55;5.80;58.10
76168;DHT22;64927;48.214;16.378;2023-01-19T07:59:21;5.80;58.20
76168;DHT22;64927;48.214;16.378;2023-01-19T08:01:46;5.70;58.50
76168;DHT22;64927;48.214;16.378;2023-01-19T08:04:12;5.80;58.40
76168;DHT22;64927;48.214;16.378;2023-01-19T08:06:38;5.90;58.20
76168;DHT22;64927;48.214;16.378;2023-01-19T08:09:05;5.90;58.10
76168;DHT22;64927;48.214;16.378;2023-01-19T08:11:32;6.00;57.70
76168;DHT22;64927;48.214;16.378;2023-01-19T08:13:59;5.90;57.70
76168;DHT22;64927;48.214;16.378;2023-01-19T08:16:27;5.80;58.10
76168;DHT22;64927;48.214;16.378;2023-01-19T08:18:53;5.90;58.10
76168;DHT22;64927;48.214;16.378;2023-01-19T08:21:24;6.00;57.80
76168;DHT22;64927;48.214;16.378;2023-01-19T08:23:56;6.00;57.90
76168;DHT22;64927;48.214;16.378;2023-01-19T08:26:28;6.10;57.80
76168;DHT22;64927;48.214;16.378;2023-01-19T08:28:57;6.10;57.90
76168;DHT22;64927;48.214;16.378;2023-01-19T08:31:23;6.10;57.40
76168;DHT22;64927;48.214;16.378;2023-01-19T08:33:49;6.10;57.50
76168;DHT22;64927;48.214;16.378;2023-01-19T08:36:15;5.90;57.70
76168;DHT22;64927;48.214;16.378;2023-01-19T08:38:42;6.00;57.90
76168;DHT22;64927;48.214;16.378;2023-01-19T08:41:09;5.90;57.80
76168;DHT22;64927;48.214;16.378;2023-01-19T08:43:35;5.90;58.30
76168;DHT22;64927;48.214;16.378;2023-01-19T08:46:03;6.00;58.20
76168;DHT22;64927;48.214;16.378;2023-01-19T08:48:32;6.20;57.90
76168;DHT22;64927;48.214;16.378;2023-01-19T08:50:57;6.30;57.50
76168;DHT22;64927;48.214;16.378;2023-01-19T08:53:26;6.30;57.10
76168;DHT22;64927;48.214;16.378;2023-01-19T08:55:56;6.10;58.20
76168;DHT22;64927;48.214;16.378;2023-01-19T08:58:28;6.20;57.80
76168;DHT22;64927;48.214;16.378;2023-01-19T09:00:54;6.40;57.40
76168;DHT22;64927;48.214;16.378;2023-01-19T09:03:23;6.40;57.40
76168;DHT22;64927;48.214;16.378;2023-01-19T09:05:49;6.50;57.10
76168;DHT22;64927;48.214;16.378;2023-01-19T09:08:15;6.30;56.30
76168;DHT22;64927;48.214;16.378;2023-01-19T09:10:46;6.40;56.60
76168;DHT22;64927;48.214;16.378;2023-01-19T09:13:15;6.50;56.30
76168;DHT22;64927;48.214;16.378;2023-01-19T09:15:44;6.20;56.40
76168;DHT22;64927;48.214;16.378;2023-01-19T09:18:12;6.30;56.40
76168;DHT22;64927;48.214;16.378;2023-01-19T09:20:42;6.30;56.20
76168;DHT22;64927;48.214;16.378;2023-01-19T09:23:09;6.40;55.50
76168;DHT22;64927;48.214;16.378;2023-01-19T09:25:36;6.30;55.50
76168;DHT22;64927;48.214;16.378;2023-01-19T09:28:07;6.50;54.70
76168;DHT22;64927;48.214;16.378;2023-01-19T09:30:36;6.60;54.60
76168;DHT22;64927;48.214;16.378;2023-01-19T09:33:04;6.60;54.30
76168;DHT22;64927;48.214;16.378;2023-01-19T09:35:32;6.60;54.80
76168;DHT22;64927;48.214;16.378;2023-01-19T09:38:01;6.70;54.50
76168;DHT22;64927;48.214;16.378;2023-01-19T09:40:29;6.60;53.80
76168;DHT22;64927;48.214;16.378;2023-01-19T09:48:53;6.80;53.90
76168;DHT22;64927;48.214;16.378;2023-01-19T09:51:47;6.80;54.10
76168;DHT22;64927;48.214;16.378;2023-01-19T09:57:11;6.60;55.00
76168;DHT22;64927;48.214;16.378;2023-01-19T09:59:43;6.80;54.40
76168;DHT22;64927;48.214;16.378;2023-01-19T10:02:54;6.80;54.30
76168;DHT22;64927;48.214;16.378;2023-01-19T10:08:11;6.80;54.30
76168;DHT22;64927;48.214;16.378;2023-01-19T10:10:46;6.80;54.40
76168;DHT22;64927;48.214;16.378;2023-01-19T10:18:50;6.80;53.90
76168;DHT22;64927;48.214;16.378;2023-01-19T10:21:25;6.80;53.80
76168;DHT22;64927;48.214;16.378;2023-01-19T10:29:12;6.80;53.50
76168;DHT22;64927;48.214;16.378;2023-01-19T10:31:43;6.90;53.60
76168;DHT22;64927;48.214;16.378;2023-01-19T10:34:11;6.90;53.70
76168;DHT22;64927;48.214;16.378;2023-01-19T10:36:43;6.90;53.70
76168;DHT22;64927;48.214;16.378;2023-01-19T10:39:14;6.90;53.80
76168;DHT22;64927;48.214;16.378;2023-01-19T10:41:49;6.70;54.00
76168;DHT22;64927;48.214;16.378;2023-01-19T10:44:28;6.70;54.40
76168;DHT22;64927;48.214;16.378;2023-01-19T10:46:58;6.80;54.60
76168;DHT22;64927;48.214;16.378;2023-01-19T10:51:53;6.60;54.60
76168;DHT22;64927;48.214;16.378;2023-01-19T10:54:23;6.70;54.50
76168;DHT22;64927;48.214;16.378;2023-01-19T10:56:53;6.80;54.60
76168;DHT22;64927;48.214;16.378;2023-01-19T11:02:28;6.90;53.60
76168;DHT22;64927;48.214;16.378;2023-01-19T11:05:01;6.90;53.10
76168;DHT22;64927;48.214;16.378;2023-01-19T11:07:45;6.90;53.00
76168;DHT22;64927;48.214;16.378;2023-01-19T11:13:02;6.90;53.00
76168;DHT22;64927;48.214;16.378;2023-01-19T11:15:48;7.00;52.90
76168;DHT22;64927;48.214;16.378;2023-01-19T11:18:30;7.10;51.70
76168;DHT22;64927;48.214;16.378;2023-01-19T11:20:58;7.10;51.50
76168;DHT22;64927;48.214;16.378;2023-01-19T11:23:34;7.20;50.80
76168;DHT22;64927;48.214;16.378;2023-01-19T11:26:14;7.10;50.60
76168;DHT22;64927;48.214;16.378;2023-01-19T11:28:51;7.00;50.00
76168;DHT22;64927;48.214;16.378;2023-01-19T11:33:56;6.90;49.70
76168;DHT22;64927;48.214;16.378;2023-01-19T11:36:36;6.80;50.10
76168;DHT22;64927;48.214;16.378;2023-01-19T11:39:23;6.70;49.50
76168;DHT22;64927;48.214;16.378;2023-01-19T11:41:52;6.80;49.20
76168;DHT22;64927;48.214;16.378;2023-01-19T11:44:35;6.70;49.20
76168;DHT22;64927;48.214;16.378;2023-01-19T11:47:19;6.80;48.30
76168;DHT22;64927;48.214;16.378;2023-01-19T11:50:21;6.60;47.90
76168;DHT22;64927;48.214;16.378;2023-01-19T11:58:15;6.40;42.70
76168;DHT22;64927;48.214;16.378;2023-01-19T12:00:49;6.50;43.70
76168;DHT22;64927;48.214;16.378;2023-01-19T12:06:02;6.70;42.30
76168;DHT22;64927;48.214;16.378;2023-01-19T12:08:46;6.60;42.30
76168;DHT22;64927;48.214;16.378;2023-01-19T12:11:22;6.80;42.10
76168;DHT22;64927;48.214;16.378;2023-01-19T12:13:51;6.70;42.50
76168;DHT22;64927;48.214;16.378;2023-01-19T12:16:23;6.70;43.40
76168;DHT22;64927;48.214;16.378;2023-01-19T12:19:01;6.80;45.40
76168;DHT22;64927;48.214;16.378;2023-01-19T12:21:28;6.80;42.70
76168;DHT22;64927;48.214;16.378;2023-01-19T12:26:47;6.70;42.70
76168;DHT22;64927;48.214;16.378;2023-01-19T12:29:17;6.60;42.80
76168;DHT22;64927;48.214;16.378;2023-01-19T12:37:33;6.60;44.70
76168;DHT22;64927;48.214;16.378;2023-01-19T12:40:03;6.60;45.00
76168;DHT22;64927;48.214;16.378;2023-01-19T12:42:32;6.50;45.50
76168;DHT22;64927;48.214;16.378;2023-01-19T12:45:13;6.50;46.30
76168;DHT22;64927;48.214;16.378;2023-01-19T12:47:52;6.50;46.80
76168;DHT22;64927;48.214;16.378;2023-01-19T12:50:20;6.60;47.30
76168;DHT22;64927;48.214;16.378;2023-01-19T12:52:59;6.50;47.80
76168;DHT22;64927;48.214;16.378;2023-01-19T12:55:36;6.40;48.00
76168;DHT22;64927;48.214;16.378;2023-01-19T13:21:40;6.20;46.60
76168;DHT22;64927;48.214;16.378;2023-01-19T13:31:42;6.40;46.80
76168;DHT22;64927;48.214;16.378;2023-01-19T13:34:15;6.50;47.00
76168;DHT22;64927;48.214;16.378;2023-01-19T13:36:45;6.50;47.10
76168;DHT22;64927;48.214;16.378;2023-01-19T13:39:35;6.60;47.50
76168;DHT22;64927;48.214;16.378;2023-01-19T13:42:08;6.60;49.60
76168;DHT22;64927;48.214;16.378;2023-01-19T13:44:45;6.60;50.80
76168;DHT22;64927;48.214;16.378;2023-01-19T13:47:20;6.60;51.50
76168;DHT22;64927;48.214;16.378;2023-01-19T13:49:50;6.60;52.20
76168;DHT22;64927;48.214;16.378;2023-01-19T13:52:24;6.70;52.60
76168;DHT22;64927;48.214;16.378;2023-01-19T13:55:00;6.70;53.50
76168;DHT22;64927;48.214;16.378;2023-01-19T14:02:37;6.60;54.70
76168;DHT22;64927;48.214;16.378;2023-01-19T14:07:41;6.50;56.40
76168;DHT22;64927;48.214;16.378;2023-01-19T14:10:12;6.50;55.70
76168;DHT22;64927;48.214;16.378;2023-01-19T14:12:39;6.50;55.80
76168;DHT22;64927;48.214;16.378;2023-01-19T14:15:08;6.50;55.70
76168;DHT22;64927;48.214;16.378;2023-01-19T14:17:40;6.50;55.70
76168;DHT22;64927;48.214;16.378;2023-01-19T14:20:26;6.50;56.20
76168;DHT22;64927;48.214;16.378;2023-01-19T14:22:54;6.40;55.80
76168;DHT22;64927;48.214;16.378;2023-01-19T14:28:40;6.30;56.30
76168;DHT22;64927;48.214;16.378;2023-01-19T14:33:47;6.20;56.30
76168;DHT22;64927;48.214;16.378;2023-01-19T14:38:47;6.20;56.40
76168;DHT22;64927;48.214;16.378;2023-01-19T14:41:35;6.20;56.30
76168;DHT22;64927;48.214;16.378;2023-01-19T14:44:09;6.20;56.10
76168;DHT22;64927;48.214;16.378;2023-01-19T14:46:44;6.20;55.80
76168;DHT22;64927;48.214;16.378;2023-01-19T14:49:17;6.30;55.50
76168;DHT22;64927;48.214;16.378;2023-01-19T14:51:44;6.30;55.30
76168;DHT22;64927;48.214;16.378;2023-01-19T14:54:15;6.10;54.40
76168;DHT22;64927;48.214;16.378;2023-01-19T14:56:41;6.00;54.70
76168;DHT22;64927;48.214;16.378;2023-01-19T14:59:08;5.90;54.80
76168;DHT22;64927;48.214;16.378;2023-01-19T15:01:35;5.90;55.00
76168;DHT22;64927;48.214;16.378;2023-01-19T15:04:03;6.00;55.10
76168;DHT22;64927;48.214;16.378;2023-01-19T15:06:29;6.00;55.10
76168;DHT22;64927;48.214;16.378;2023-01-19T15:08:55;6.00;55.40
76168;DHT22;64927;48.214;16.378;2023-01-19T15:11:34;6.00;55.10
76168;DHT22;64927;48.214;16.378;2023-01-19T15:14:01;6.10;55.00
76168;DHT22;64927;48.214;16.378;2023-01-19T15:16:28;6.10;55.80
76168;DHT22;64927;48.214;16.378;2023-01-19T15:18:56;6.00;55.90
76168;DHT22;64927;48.214;16.378;2023-01-19T15:21:22;5.90;56.50
76168;DHT22;64927;48.214;16.378;2023-01-19T15:23:51;5.80;56.80
76168;DHT22;64927;48.214;16.378;2023-01-19T15:26:20;5.60;57.70
76168;DHT22;64927;48.214;16.378;2023-01-19T15:28:47;5.60;58.00
76168;DHT22;64927;48.214;16.378;2023-01-19T15:31:21;5.60;58.10
76168;DHT22;64927;48.214;16.378;2023-01-19T15:33:48;5.60;57.90
76168;DHT22;64927;48.214;16.378;2023-01-19T15:36:18;5.60;58.10
76168;DHT22;64927;48.214;16.378;2023-01-19T15:38:44;5.50;58.20
76168;DHT22;64927;48.214;16.378;2023-01-19T15:41:24;5.50;58.40
76168;DHT22;64927;48.214;16.378;2023-01-19T15:43:50;5.50;58.50
76168;DHT22;64927;48.214;16.378;2023-01-19T15:46:18;5.40;58.70
76168;DHT22;64927;48.214;16.378;2023-01-19T15:48:45;5.40;58.80
76168;DHT22;64927;48.214;16.378;2023-01-19T15:51:12;5.40;58.80
76168;DHT22;64927;48.214;16.378;2023-01-19T15:53:39;5.40;58.60
76168;DHT22;64927;48.214;16.378;2023-01-19T15:56:05;5.50;58.70
76168;DHT22;64927;48.214;16.378;2023-01-19T15:58:30;5.40;58.50
76168;DHT22;64927;48.214;16.378;2023-01-19T16:00:57;5.40;58.60
76168;DHT22;64927;48.214;16.378;2023-01-19T16:03:24;5.40;58.60
76168;DHT22;64927;48.214;16.378;2023-01-19T16:05:53;5.30;58.60
76168;DHT22;64927;48.214;16.378;2023-01-19T16:08:19;5.30;58.60
76168;DHT22;64927;48.214;16.378;2023-01-19T16:10:46;5.30;58.50
76168;DHT22;64927;48.214;16.378;2023-01-19T16:13:12;5.30;58.70
76168;DHT22;64927;48.214;16.378;2023-01-19T16:15:40;5.20;58.80
76168;DHT22;64927;48.214;16.378;2023-01-19T16:18:06;5.10;58.90
76168;DHT22;64927;48.214;16.378;2023-01-19T16:20:32;5.10;59.00
76168;DHT22;64927;48.214;16.378;2023-01-19T16:23:00;5.10;59.10
76168;DHT22;64927;48.214;16.378;2023-01-19T16:25:26;5.00;59.10
76168;DHT22;64927;48.214;16.378;2023-01-19T16:27:53;5.00;58.80
76168;DHT22;64927;48.214;16.378;2023-01-19T16:30:19;5.00;58.90
76168;DHT22;64927;48.214;16.378;2023-01-19T16:32:47;5.00;58.90
76168;DHT22;64927;48.214;16.378;2023-01-19T16:35:13;5.00;58.70
76168;DHT22;64927;48.214;16.378;2023-01-19T16:37:42;5.00;58.60
76168;DHT22;64927;48.214;16.378;2023-01-19T16:40:08;5.00;58.80
76168;DHT22;64927;48.214;16.378;2023-01-19T16:42:37;5.10;58.50
76168;DHT22;64927;48.214;16.378;2023-01-19T16:45:06;5.10;58.30
76168;DHT22;64927;48.214;16.378;2023-01-19T16:47:32;5.00;58.20
76168;DHT22;64927;48.214;16.378;2023-01-19T16:49:58;5.10;58.10
76168;DHT22;64927;48.214;16.378;2023-01-19T16:52:23;5.10;57.80
76168;DHT22;64927;48.214;16.378;2023-01-19T16:54:49;5.10;57.80
76168;DHT22;64927;48.214;16.378;2023-01-19T16:57:18;5.10;57.70
76168;DHT22;64927;48.214;16.378;2023-01-19T16:59:50;5.00;57.60
76168;DHT22;64927;48.214;16.378;2023-01-19T17:02:16;5.00;57.70
76168;DHT22;64927;48.214;16.378;2023-01-19T17:04:44;5.00;58.20
76168;DHT22;64927;48.214;16.378;2023-01-19T17:07:10;5.10;57.90
76168;DHT22;64927;48.214;16.378;2023-01-19T17:09:35;5.10;57.80
76168;DHT22;64927;48.214;16.378;2023-01-19T17:12:01;5.10;57.70
76168;DHT22;64927;48.214;16.378;2023-01-19T17:14:27;5.10;57.60
76168;DHT22;64927;48.214;16.378;2023-01-19T17:16:53;5.00;57.40
76168;DHT22;64927;48.214;16.378;2023-01-19T17:19:21;5.00;57.50
76168;DHT22;64927;48.214;16.378;2023-01-19T17:21:47;5.00;57.50
76168;DHT22;64927;48.214;16.378;2023-01-19T17:24:17;5.00;57.40
76168;DHT22;64927;48.214;16.378;2023-01-19T17:26:43;5.00;57.60
76168;DHT22;64927;48.214;16.378;2023-01-19T17:29:10;5.00;57.50
76168;DHT22;64927;48.214;16.378;2023-01-19T17:31:36;5.00;57.50
76168;DHT22;64927;48.214;16.378;2023-01-19T17:34:03;5.10;57.50